Time;durP1;ratioP1;P1;durP2;ratioP2;P2;SDS_P1;SDS_P2;PMS_P1;PMS_P2;Temp;Humidity;BMP_temperature;BMP_pressure;BME280_temperature;BME280_humidity;BME280_pressure;Samples;Min_cycle;Max_cycle;Signal;HPM_P1;HPM_P2
2023/07/16 00:00:51;;;;;;;;;;;;;;;21.95;59.04;99944.69;4976934;28;6779;-70
2023/07/16 00:03:16;;;;;;;;;;;;;;;21.91;58.96;99951.69;4979622;28;6795;-71
2023/07/16 00:05:42;;;;;;;;;;;;;;;21.86;59.06;99942.16;4978348;28;6787;-71
2023/07/16 00:08:07;;;;;;;;;;;;;;;21.82;58.81;99950.84;4962071;28;7250;-71
2023/07/16 00:10:35;;;;;;;;;;;;;;;21.76;58.86;99957.84;4966063;28;6957;-72
2023/07/16 00:13:01;;;;;;;;;;;;;;;21.74;59.49;99954.38;4966848;28;7001;-73
2023/07/16 00:15:26;;;;;;;;;;;;;;;21.75;59.58;99952.63;4978553;28;7222;-70
2023/07/16 00:17:52;;;;;;;;;;;;;;;21.74;59.53;99953.50;4963951;28;6796;-69
2023/07/16 00:20:18;;;;;;;;;;;;;;;21.73;59.73;99951.78;4961701;28;7284;-70
2023/07/16 00:22:43;;;;;;;;;;;;;;;21.71;59.73;99948.31;4962595;28;6788;-71
2023/07/16 00:25:09;;;;;;;;;;;;;;;21.68;59.76;99948.31;4980658;28;6887;-71
2023/07/16 00:27:34;;;;;;;;;;;;;;;21.64;59.72;99948.31;4961324;28;6840;-70
2023/07/16 00:30:00;;;;;;;;;;;;;;;21.65;59.96;99946.59;4964749;28;6813;-73
2023/07/16 00:32:25;;;;;;;;;;;;;;;21.64;60.14;99947.47;4961903;28;6959;-71
2023/07/16 00:34:51;;;;;;;;;;;;;;;21.65;60.27;99947.44;4969617;28;6878;-72
2023/07/16 00:37:16;;;;;;;;;;;;;;;21.68;60.26;99953.53;4975694;28;7136;-73
2023/07/16 00:39:42;;;;;;;;;;;;;;;21.67;60.15;99957.91;4979996;28;6792;-73
2023/07/16 00:42:07;;;;;;;;;;;;;;;21.67;59.92;99952.69;4960514;28;6795;-73
2023/07/16 00:44:33;;;;;;;;;;;;;;;21.67;60.12;99960.50;4963917;28;7137;-73
2023/07/16 00:46:58;;;;;;;;;;;;;;;21.68;59.86;99964.84;4947708;28;7208;-73
2023/07/16 00:49:24;;;;;;;;;;;;;;;21.65;59.84;99951.78;4964508;28;7090;-72
2023/07/16 00:51:52;;;;;;;;;;;;;;;21.64;59.61;99963.09;4962648;28;6796;-72
2023/07/16 00:54:18;;;;;;;;;;;;;;;21.65;60.21;99959.63;4947915;28;7009;-73
2023/07/16 00:56:44;;;;;;;;;;;;;;;21.65;60.18;99954.41;4962053;28;6991;-73
2023/07/16 00:59:09;;;;;;;;;;;;;;;21.66;59.85;99956.13;4978662;28;6812;-73
2023/07/16 01:01:35;;;;;;;;;;;;;;;21.65;60.02;99954.41;4977356;28;6824;-74
2023/07/16 01:04:00;;;;;;;;;;;;;;;21.67;59.54;99960.50;4980121;28;6791;-73
2023/07/16 01:06:36;;;;;;;;;;;;;;;21.65;59.93;99957.88;4975871;28;6859;-73
2023/07/16 01:09:04;;;;;;;;;;;;;;;21.65;59.68;99962.22;4944844;28;7179;-73
2023/07/16 01:11:30;;;;;;;;;;;;;;;21.64;59.57;99963.94;4978752;28;7067;-73
2023/07/16 01:13:57;;;;;;;;;;;;;;;21.61;59.62;99963.09;4959755;28;6812;-73
2023/07/16 01:16:24;;;;;;;;;;;;;;;21.60;59.56;99963.97;4960725;28;6796;-73
2023/07/16 01:18:51;;;;;;;;;;;;;;;21.59;59.48;99967.47;4963709;28;6804;-73
2023/07/16 01:21:20;;;;;;;;;;;;;;;21.58;59.54;99968.34;4949299;28;6982;-73
2023/07/16 01:23:51;;;;;;;;;;;;;;;21.57;59.23;99969.22;4963330;28;6804;-73
2023/07/16 01:26:36;;;;;;;;;;;;;;;21.55;59.51;99963.16;4975832;28;6872;-73
2023/07/16 01:29:23;;;;;;;;;;;;;;;21.53;59.27;99972.69;4960866;28;6820;-73
2023/07/16 01:31:50;;;;;;;;;;;;;;;21.50;59.32;99966.63;4962525;28;6983;-73
2023/07/16 01:34:16;;;;;;;;;;;;;;;21.50;59.20;99977.03;4945983;28;7313;-73
2023/07/16 01:36:44;;;;;;;;;;;;;;;21.49;59.33;99980.53;4961146;28;6796;-72
2023/07/16 01:39:09;;;;;;;;;;;;;;;21.50;59.10;99976.19;4961517;28;6955;-72
2023/07/16 01:41:34;;;;;;;;;;;;;;;21.49;58.76;99972.72;4977714;28;7398;-73
2023/07/16 01:44:00;;;;;;;;;;;;;;;21.49;59.10;99979.69;4946657;28;8301;-73
2023/07/16 01:46:26;;;;;;;;;;;;;;;21.49;58.73;99975.31;4978602;28;6816;-73
2023/07/16 01:48:51;;;;;;;;;;;;;;;21.51;58.67;99984.00;4980650;28;6871;-73
2023/07/16 01:51:17;;;;;;;;;;;;;;;21.53;58.46;99983.13;4978185;28;6875;-73
2023/07/16 01:53:42;;;;;;;;;;;;;;;21.52;58.24;99977.06;4963478;28;7178;-73
2023/07/16 01:56:08;;;;;;;;;;;;;;;21.54;58.41;99997.91;4962996;28;6987;-73
2023/07/16 01:58:33;;;;;;;;;;;;;;;21.51;57.90;99986.59;4966297;28;7016;-73
2023/07/16 02:00:59;;;;;;;;;;;;;;;21.49;57.64;99985.75;4980488;28;6952;-73
2023/07/16 02:03:24;;;;;;;;;;;;;;;21.46;58.12;99984.88;4978605;28;7142;-73
2023/07/16 02:05:50;;;;;;;;;;;;;;;21.44;57.81;99992.72;4981308;28;6808;-72
2023/07/16 02:08:17;;;;;;;;;;;;;;;21.41;57.60;99977.09;4980829;28;6839;-72
2023/07/16 02:10:43;;;;;;;;;;;;;;;21.36;57.39;99990.13;4952960;28;7011;-73
2023/07/16 02:13:08;;;;;;;;;;;;;;;21.33;57.67;99994.47;4961511;28;6772;-73
2023/07/16 02:15:34;;;;;;;;;;;;;;;21.29;57.19;99997.97;4965757;28;6775;-73
2023/07/16 02:17:59;;;;;;;;;;;;;;;21.24;57.22;100003.19;4981835;28;7113;-73
2023/07/16 02:20:25;;;;;;;;;;;;;;;21.19;56.78;100002.31;4967992;28;6995;-73
2023/07/16 02:22:50;;;;;;;;;;;;;;;21.14;57.15;100004.94;4967275;28;6856;-73
2023/07/16 02:25:16;;;;;;;;;;;;;;;21.12;57.06;100011.06;4984105;28;6811;-72
2023/07/16 02:27:41;;;;;;;;;;;;;;;21.11;56.77;100009.31;4982124;28;6772;-73
2023/07/16 02:30:07;;;;;;;;;;;;;;;21.09;56.62;100015.38;4966486;28;6963;-73
2023/07/16 02:32:33;;;;;;;;;;;;;;;21.07;56.29;100014.50;4976008;28;7461;-73
2023/07/16 02:34:59;;;;;;;;;;;;;;;21.04;56.56;100019.75;4978361;28;6796;-73
2023/07/16 02:37:24;;;;;;;;;;;;;;;21.03;56.30;100027.53;4997789;28;7025;-72
2023/07/16 02:39:50;;;;;;;;;;;;;;;21.01;56.01;100034.50;4995407;28;6960;-73
2023/07/16 02:42:15;;;;;;;;;;;;;;;20.97;56.30;100031.03;4982743;28;6804;-72
2023/07/16 02:44:44;;;;;;;;;;;;;;;20.94;56.04;100033.66;4982548;28;6803;-73
2023/07/16 02:47:11;;;;;;;;;;;;;;;20.92;56.32;100025.81;4983519;28;6815;-73
2023/07/16 02:49:37;;;;;;;;;;;;;;;20.90;56.22;100030.16;4981531;28;6812;-73
2023/07/16 02:52:03;;;;;;;;;;;;;;;20.91;56.13;100038.88;4977782;28;6994;-73
2023/07/16 02:54:29;;;;;;;;;;;;;;;20.90;55.86;100042.31;4980871;28;7584;-73
2023/07/16 02:56:54;;;;;;;;;;;;;;;20.87;55.87;100030.19;4983964;28;7183;-71
2023/07/16 02:59:19;;;;;;;;;;;;;;;20.85;55.91;100049.28;4980325;28;6855;-71
2023/07/16 03:01:45;;;;;;;;;;;;;;;20.83;55.64;100049.25;4979666;28;7025;-69
2023/07/16 03:04:10;;;;;;;;;;;;;;;20.80;55.60;100051.84;4978818;28;6954;-71
2023/07/16 03:06:36;;;;;;;;;;;;;;;20.78;55.30;100057.03;4981170;28;6804;-69
2023/07/16 03:09:01;;;;;;;;;;;;;;;20.76;55.57;100060.50;4984477;28;6776;-71
2023/07/16 03:11:27;;;;;;;;;;;;;;;20.75;55.33;100059.66;4978997;28;6831;-70
2023/07/16 03:13:52;;;;;;;;;;;;;;;20.72;55.40;100064.88;4983450;28;6772;-70
2023/07/16 03:16:18;;;;;;;;;;;;;;;20.70;54.77;100060.53;4978846;28;6879;-71
2023/07/16 03:18:45;;;;;;;;;;;;;;;20.67;55.09;100067.47;4982165;28;6780;-70
2023/07/16 03:21:10;;;;;;;;;;;;;;;20.65;55.06;100063.97;4980944;28;6804;-70
2023/07/16 03:23:36;;;;;;;;;;;;;;;20.63;55.05;100073.53;4979545;28;7151;-71
2023/07/16 03:26:01;;;;;;;;;;;;;;;20.60;55.27;100078.72;4975739;28;7262;-69
2023/07/16 03:28:26;;;;;;;;;;;;;;;20.58;55.34;100072.66;4977390;28;7157;-69
2023/07/16 03:30:53;;;;;;;;;;;;;;;20.59;55.24;100079.59;4983040;28;6990;-69
2023/07/16 03:33:19;;;;;;;;;;;;;;;20.58;55.07;100075.28;4979715;28;7364;-68
2023/07/16 03:35:45;;;;;;;;;;;;;;;20.57;54.85;100089.16;4976644;28;6775;-68
2023/07/16 03:38:12;;;;;;;;;;;;;;;20.56;54.91;100079.56;4975984;28;6804;-69
2023/07/16 03:40:37;;;;;;;;;;;;;;;20.55;54.96;100083.06;4964808;28;6999;-69
2023/07/16 03:43:03;;;;;;;;;;;;;;;20.54;54.75;100087.41;4974066;28;6803;-69
2023/07/16 03:45:29;;;;;;;;;;;;;;;20.54;54.88;100092.63;4990709;28;6776;-69
2023/07/16 03:47:54;;;;;;;;;;;;;;;20.57;54.64;100094.38;4963841;28;6915;-72
2023/07/16 03:50:20;;;;;;;;;;;;;;;20.57;54.70;100099.56;4978648;28;6840;-70
2023/07/16 03:52:45;;;;;;;;;;;;;;;20.56;54.63;100099.56;4978186;28;6788;-69
2023/07/16 03:55:10;;;;;;;;;;;;;;;20.57;55.14;100096.06;4981457;28;6796;-69
2023/07/16 03:57:36;;;;;;;;;;;;;;;20.54;54.80;100097.81;4977990;28;6792;-69
2023/07/16 04:00:05;;;;;;;;;;;;;;;20.51;55.15;100102.16;4977374;28;6959;-70
2023/07/16 04:02:31;;;;;;;;;;;;;;;20.51;55.13;100102.16;4969203;28;10449;-70
2023/07/16 04:04:56;;;;;;;;;;;;;;;20.50;55.03;100103.88;4978826;28;6787;-68
2023/07/16 04:07:22;;;;;;;;;;;;;;;20.54;55.22;100113.44;4976152;28;6784;-69
2023/07/16 04:09:47;;;;;;;;;;;;;;;20.56;55.33;100118.63;4978057;28;6787;-69
2023/07/16 04:12:13;;;;;;;;;;;;;;;20.58;55.09;100124.72;4979054;28;6772;-71
2023/07/16 04:14:38;;;;;;;;;;;;;;;20.61;55.11;100122.13;4978390;28;6847;-70
2023/07/16 04:17:04;;;;;;;;;;;;;;;20.65;54.53;100131.66;4981002;28;6792;-71
2023/07/16 04:19:30;;;;;;;;;;;;;;;20.67;54.28;100135.16;4973915;28;8760;-70
2023/07/16 04:21:55;;;;;;;;;;;;;;;20.70;54.17;100136.03;4977107;28;7237;-71
2023/07/16 04:24:20;;;;;;;;;;;;;;;20.72;54.31;100144.72;4977090;28;6848;-69
2023/07/16 04:26:46;;;;;;;;;;;;;;;20.77;54.46;100145.59;4976185;28;7237;-71
2023/07/16 04:29:11;;;;;;;;;;;;;;;20.88;54.31;100149.13;4978072;28;6800;-69
2023/07/16 04:31:37;;;;;;;;;;;;;;;21.06;54.73;100152.63;4974168;28;7140;-68
2023/07/16 04:34:02;;;;;;;;;;;;;;;21.23;54.54;100150.84;4995010;28;6962;-68
2023/07/16 04:36:28;;;;;;;;;;;;;;;21.41;54.10;100154.34;4971962;28;7071;-69
2023/07/16 04:38:53;;;;;;;;;;;;;;;21.59;53.59;100161.28;4967577;28;6807;-69
2023/07/16 04:41:19;;;;;;;;;;;;;;;21.75;53.35;100159.53;4972277;28;6987;-69
2023/07/16 04:43:44;;;;;;;;;;;;;;;21.92;53.14;100172.53;4978300;28;7107;-69
2023/07/16 04:46:11;;;;;;;;;;;;;;;22.09;52.57;100173.38;4968471;28;7191;-71
2023/07/16 04:48:37;;;;;;;;;;;;;;;22.26;52.43;100178.50;4960047;28;7015;-72
2023/07/16 04:51:02;;;;;;;;;;;;;;;22.40;51.96;100181.06;4991869;28;6878;-71
2023/07/16 04:53:28;;;;;;;;;;;;;;;22.54;51.83;100181.91;4976744;28;6791;-70
2023/07/16 04:55:53;;;;;;;;;;;;;;;22.68;52.12;100179.25;4977679;28;8125;-70
2023/07/16 04:58:19;;;;;;;;;;;;;;;22.82;51.17;100173.94;4980276;28;6936;-69
2023/07/16 05:00:45;;;;;;;;;;;;;;;22.93;50.48;100175.59;4974474;28;7039;-68
2023/07/16 05:03:11;;;;;;;;;;;;;;;23.00;49.59;100177.31;4977950;28;6974;-70
2023/07/16 05:05:36;;;;;;;;;;;;;;;23.06;49.32;100179.00;4979275;28;6845;-69
2023/07/16 05:08:02;;;;;;;;;;;;;;;23.11;48.85;100172.84;4976090;28;6780;-69
2023/07/16 05:10:28;;;;;;;;;;;;;;;23.20;48.59;100173.69;4960109;28;7110;-69
2023/07/16 05:12:54;;;;;;;;;;;;;;;23.23;48.90;100187.59;4971877;28;6792;-71
2023/07/16 05:15:19;;;;;;;;;;;;;;;23.31;48.88;100179.72;4976925;28;7327;-68
2023/07/16 05:17:45;;;;;;;;;;;;;;;23.43;49.33;100176.13;4969613;28;6923;-68
2023/07/16 05:20:10;;;;;;;;;;;;;;;23.57;48.02;100176.00;4958077;28;6962;-69
2023/07/16 05:22:36;;;;;;;;;;;;;;;23.65;47.93;100178.53;4966977;28;7328;-71
2023/07/16 05:25:02;;;;;;;;;;;;;;;23.70;47.33;100188.06;4997196;28;6986;-70
2023/07/16 05:27:27;;;;;;;;;;;;;;;23.76;47.75;100188.88;4977820;28;6823;-69
2023/07/16 05:29:53;;;;;;;;;;;;;;;23.86;47.35;100187.94;4969379;28;7042;-68
2023/07/16 05:32:18;;;;;;;;;;;;;;;23.93;46.39;100183.50;4979844;28;7218;-72
2023/07/16 05:34:44;;;;;;;;;;;;;;;23.93;46.17;100186.09;4978769;28;6913;-69
2023/07/16 05:37:09;;;;;;;;;;;;;;;23.88;45.93;100183.53;4976176;28;6776;-69
2023/07/16 05:39:35;;;;;;;;;;;;;;;23.89;45.98;100190.50;4979633;28;7102;-73
2023/07/16 05:42:02;;;;;;;;;;;;;;;23.90;45.22;100189.63;4964851;28;7227;-77
2023/07/16 05:44:28;;;;;;;;;;;;;;;23.94;45.30;100191.31;4976251;28;7202;-73
2023/07/16 05:46:53;;;;;;;;;;;;;;;23.98;45.29;100197.38;4978601;28;6812;-74
2023/07/16 05:49:19;;;;;;;;;;;;;;;24.04;45.17;100188.59;4962831;28;6959;-72
2023/07/16 05:51:44;;;;;;;;;;;;;;;24.07;44.44;100196.47;4982577;28;7309;-73
2023/07/16 05:54:10;;;;;;;;;;;;;;;24.07;44.81;100199.94;4966257;28;7387;-73
2023/07/16 05:56:35;;;;;;;;;;;;;;;24.05;44.51;100198.22;4983242;28;6775;-73
2023/07/16 05:59:01;;;;;;;;;;;;;;;23.99;44.50;100202.59;4973574;28;7243;-71
2023/07/16 06:01:26;;;;;;;;;;;;;;;23.86;44.03;100209.72;4980942;28;7200;-75
2023/07/16 06:03:52;;;;;;;;;;;;;;;23.66;43.32;100209.94;4979108;28;7906;-74
2023/07/16 06:06:17;;;;;;;;;;;;;;;23.46;43.21;100212.69;4984476;28;6783;-75
2023/07/16 06:08:43;;;;;;;;;;;;;;;23.27;43.76;100222.38;4978019;28;7043;-73
2023/07/16 06:11:08;;;;;;;;;;;;;;;23.08;43.57;100209.47;4979851;28;6807;-74
2023/07/16 06:13:34;;;;;;;;;;;;;;;22.94;43.95;100216.53;4979590;28;6980;-72
2023/07/16 06:16:00;;;;;;;;;;;;;;;22.83;43.89;100225.31;4979876;28;6961;-73
2023/07/16 06:18:25;;;;;;;;;;;;;;;22.73;44.24;100226.22;4974363;28;7313;-75
2023/07/16 06:20:52;;;;;;;;;;;;;;;22.66;44.28;100232.34;4981199;28;7115;-72
2023/07/16 06:23:18;;;;;;;;;;;;;;;22.60;44.33;100228.91;4984277;28;6815;-72
2023/07/16 06:25:44;;;;;;;;;;;;;;;22.53;44.78;100235.03;4962662;28;6964;-72
2023/07/16 06:28:10;;;;;;;;;;;;;;;22.49;44.20;100235.91;4977803;28;8682;-72
2023/07/16 06:30:37;;;;;;;;;;;;;;;22.45;44.72;100240.25;4978138;28;6972;-73
2023/07/16 06:33:03;;;;;;;;;;;;;;;22.43;44.88;100241.13;4970044;28;7217;-74
2023/07/16 06:35:28;;;;;;;;;;;;;;;22.41;44.82;100254.19;4983497;28;7115;-73
2023/07/16 06:37:54;;;;;;;;;;;;;;;22.43;45.39;100241.13;4992720;28;7283;-73
2023/07/16 06:40:19;;;;;;;;;;;;;;;22.44;44.75;100261.13;4978640;28;8110;-73
2023/07/16 06:42:44;;;;;;;;;;;;;;;22.44;44.91;100258.53;4974483;28;6784;-74
2023/07/16 06:45:10;;;;;;;;;;;;;;;22.44;45.06;100264.59;4974265;28;6913;-73
2023/07/16 06:47:35;;;;;;;;;;;;;;;22.45;44.75;100255.03;4977206;28;7261;-74
2023/07/16 06:50:01;;;;;;;;;;;;;;;22.45;44.64;100261.16;4977640;28;6843;-73
2023/07/16 06:52:27;;;;;;;;;;;;;;;22.45;44.84;100262.88;4978744;28;6846;-76
2023/07/16 06:54:56;;;;;;;;;;;;;;;22.48;44.74;100270.69;4979602;28;6787;-74
2023/07/16 06:57:23;;;;;;;;;;;;;;;22.50;45.38;100271.56;4982570;28;7299;-75
2023/07/16 06:59:48;;;;;;;;;;;;;;;22.56;44.97;100257.66;4999109;28;6982;-74
2023/07/16 07:02:15;;;;;;;;;;;;;;;22.60;45.38;100262.84;4977133;28;6873;-73
2023/07/16 07:04:41;;;;;;;;;;;;;;;22.69;45.12;100266.28;4977461;28;7118;-73
2023/07/16 07:07:06;;;;;;;;;;;;;;;22.77;45.51;100264.50;4972084;28;6784;-73
2023/07/16 07:09:32;;;;;;;;;;;;;;;22.88;45.11;100265.31;4976795;28;6788;-73
2023/07/16 07:11:58;;;;;;;;;;;;;;;23.07;44.74;100261.75;4961837;28;7362;-75
2023/07/16 07:14:23;;;;;;;;;;;;;;;23.33;45.22;100271.22;4965969;28;6993;-74
2023/07/16 07:16:49;;;;;;;;;;;;;;;23.59;45.17;100271.00;4980727;28;7268;-75
2023/07/16 07:19:14;;;;;;;;;;;;;;;23.88;44.91;100259.44;4980035;28;6792;-75
2023/07/16 07:21:40;;;;;;;;;;;;;;;24.18;44.87;100267.88;4997716;28;7460;-74
2023/07/16 07:24:05;;;;;;;;;;;;;;;24.47;44.25;100269.31;4978307;28;6822;-74
2023/07/16 07:26:30;;;;;;;;;;;;;;;24.69;43.84;100267.31;4978347;28;6928;-75
2023/07/16 07:28:56;;;;;;;;;;;;;;;24.92;43.48;100275.78;4962768;28;6953;-75
2023/07/16 07:31:21;;;;;;;;;;;;;;;25.16;42.86;100255.34;4980899;28;6772;-74
2023/07/16 07:33:47;;;;;;;;;;;;;;;25.43;42.78;100255.81;4979365;28;6776;-72
2023/07/16 07:36:12;;;;;;;;;;;;;;;25.69;42.15;100268.50;4989930;28;7064;-72
2023/07/16 07:38:38;;;;;;;;;;;;;;;25.94;41.81;100262.84;5005185;28;6760;-75
2023/07/16 07:41:05;;;;;;;;;;;;;;;26.24;41.16;100260.56;4982230;28;7200;-73
2023/07/16 07:43:30;;;;;;;;;;;;;;;26.51;40.82;100267.94;4995771;28;6878;-74
2023/07/16 07:45:56;;;;;;;;;;;;;;;26.66;39.79;100258.84;4976780;28;6780;-74
2023/07/16 07:48:21;;;;;;;;;;;;;;;26.75;39.74;100266.53;4981902;28;6926;-74
2023/07/16 07:50:47;;;;;;;;;;;;;;;26.82;39.05;100259.38;4964143;28;6970;-75
2023/07/16 07:53:14;;;;;;;;;;;;;;;26.86;38.57;100269.81;4980806;28;6800;-74
2023/07/16 07:55:40;;;;;;;;;;;;;;;26.86;38.46;100274.22;4980750;28;7000;-74
2023/07/16 07:58:07;;;;;;;;;;;;;;;26.81;37.97;100270.81;4973417;28;6984;-74
2023/07/16 08:00:33;;;;;;;;;;;;;;;26.81;38.38;100268.19;4998833;28;7151;-71
2023/07/16 08:02:58;;;;;;;;;;;;;;;26.91;38.51;100269.72;4979503;28;7236;-76
2023/07/16 08:05:24;;;;;;;;;;;;;;;26.99;38.23;100275.69;4980459;28;6953;-74
2023/07/16 08:07:50;;;;;;;;;;;;;;;27.13;37.68;100270.13;4978346;28;6768;-74
2023/07/16 08:10:15;;;;;;;;;;;;;;;27.24;37.77;100280.41;4979586;28;7027;-74
2023/07/16 08:12:41;;;;;;;;;;;;;;;27.25;37.24;100279.50;4981851;28;6780;-74
2023/07/16 08:15:07;;;;;;;;;;;;;;;27.34;37.06;100282.81;4978969;28;10500;-74
2023/07/16 08:17:33;;;;;;;;;;;;;;;27.42;37.14;100288.72;4978819;28;6975;-73
2023/07/16 08:19:59;;;;;;;;;;;;;;;27.68;37.25;100284.63;4974930;28;7365;-75
2023/07/16 08:22:24;;;;;;;;;;;;;;;27.94;37.22;100281.31;4977313;28;6938;-72
2023/07/16 08:24:51;;;;;;;;;;;;;;;28.18;36.56;100284.22;4981169;28;6800;-74
2023/07/16 08:27:16;;;;;;;;;;;;;;;28.17;35.52;100286.88;4976003;28;7210;-75
2023/07/16 08:29:42;;;;;;;;;;;;;;;27.93;35.28;100290.13;4980594;28;7306;-73
2023/07/16 08:32:08;;;;;;;;;;;;;;;27.76;35.32;100290.56;4974270;28;6957;-74
2023/07/16 08:34:33;;;;;;;;;;;;;;;27.83;36.33;100293.91;4976926;28;7216;-74
2023/07/16 08:36:58;;;;;;;;;;;;;;;27.99;35.78;100300.50;4977996;28;7277;-72
2023/07/16 08:39:24;;;;;;;;;;;;;;;27.99;35.72;100292.63;4979177;28;6862;-72
2023/07/16 08:41:50;;;;;;;;;;;;;;;28.01;36.13;100292.59;4978658;28;7281;-73
2023/07/16 08:44:16;;;;;;;;;;;;;;;28.25;35.42;100299.00;4992179;28;6808;-73
2023/07/16 08:46:42;;;;;;;;;;;;;;;28.48;35.22;100291.31;4961968;28;6992;-73
2023/07/16 08:49:08;;;;;;;;;;;;;;;28.66;35.13;100293.44;4981348;28;6838;-72
2023/07/16 08:51:35;;;;;;;;;;;;;;;28.92;35.03;100297.09;4976647;28;6803;-72
2023/07/16 08:54:01;;;;;;;;;;;;;;;29.03;33.92;100298.56;4976371;28;6884;-73
2023/07/16 08:56:26;;;;;;;;;;;;;;;28.97;34.40;100302.25;4980692;28;7043;-74
2023/07/16 08:58:55;;;;;;;;;;;;;;;28.76;33.34;100298.44;4982034;28;6954;-72
2023/07/16 09:01:21;;;;;;;;;;;;;;;28.42;34.20;100302.91;4990986;28;6880;-73
2023/07/16 09:03:46;;;;;;;;;;;;;;;28.28;33.53;100296.25;4980234;28;7202;-73
2023/07/16 09:06:12;;;;;;;;;;;;;;;28.21;33.75;100299.13;4981655;28;6776;-74
2023/07/16 09:08:38;;;;;;;;;;;;;;;28.17;34.59;100302.69;4983948;28;7736;-74
2023/07/16 09:11:03;;;;;;;;;;;;;;;28.25;34.05;100295.47;4985037;28;6775;-72
2023/07/16 09:13:29;;;;;;;;;;;;;;;28.37;34.02;100300.41;4984363;28;6844;-73
2023/07/16 09:15:57;;;;;;;;;;;;;;;28.40;33.45;100302.09;4986948;28;6864;-73
2023/07/16 09:18:24;;;;;;;;;;;;;;;28.54;33.51;100299.06;4970891;28;7341;-71
2023/07/16 09:20:55;;;;;;;;;;;;;;;28.90;33.29;100287.50;4986560;28;7246;-72
2023/07/16 09:23:20;;;;;;;;;;;;;;;29.21;32.77;100297.09;4983503;28;8415;-73
2023/07/16 09:25:46;;;;;;;;;;;;;;;29.43;32.87;100292.00;4985666;28;6796;-73
2023/07/16 09:28:12;;;;;;;;;;;;;;;29.87;32.52;100291.47;4983509;28;6844;-73
2023/07/16 09:30:38;;;;;;;;;;;;;;;30.28;32.56;100293.59;4984442;28;6968;-72
2023/07/16 09:33:12;;;;;;;;;;;;;;;30.86;31.01;100302.09;4964755;28;7028;-72
2023/07/16 09:35:37;;;;;;;;;;;;;;;31.23;30.93;100299.78;4981180;28;7298;-73
2023/07/16 09:38:03;;;;;;;;;;;;;;;31.51;30.51;100299.53;4981541;28;7258;-72
2023/07/16 09:40:29;;;;;;;;;;;;;;;31.96;30.93;100294.16;5000912;28;6956;-72
2023/07/16 09:42:55;;;;;;;;;;;;;;;32.37;30.72;100299.44;4980875;28;7016;-73
2023/07/16 09:45:21;;;;;;;;;;;;;;;32.72;29.61;100304.06;5001174;28;6879;-72
2023/07/16 09:47:46;;;;;;;;;;;;;;;32.59;28.52;100302.94;4977178;28;6788;-73
2023/07/16 09:50:12;;;;;;;;;;;;;;;32.19;28.49;100305.53;4983245;28;6792;-73
2023/07/16 09:52:39;;;;;;;;;;;;;;;31.62;28.60;100314.09;4984595;28;7213;-73
2023/07/16 09:55:08;;;;;;;;;;;;;;;30.96;28.96;100315.81;4976757;28;6808;-70
2023/07/16 09:57:43;;;;;;;;;;;;;;;30.45;30.05;100318.56;4985950;28;7121;-68
2023/07/16 10:00:14;;;;;;;;;;;;;;;30.29;30.64;100321.75;4959502;28;7059;-71
2023/07/16 10:02:41;;;;;;;;;;;;;;;30.07;30.79;100314.59;4968881;28;13397;-69
2023/07/16 10:05:16;;;;;;;;;;;;;;;29.83;30.38;100324.19;4975668;28;7013;-69
2023/07/16 10:07:42;;;;;;;;;;;;;;;29.65;31.00;100315.97;4969232;28;7279;-69
2023/07/16 10:10:09;;;;;;;;;;;;;;;29.64;31.22;100310.72;4983775;28;7011;-70
2023/07/16 10:12:36;;;;;;;;;;;;;;;29.75;30.89;100313.00;4966983;28;6890;-71
2023/07/16 10:15:03;;;;;;;;;;;;;;;29.96;31.22;100329.03;4964949;28;7166;-71
2023/07/16 10:17:31;;;;;;;;;;;;;;;30.15;31.15;100327.53;4982968;28;7258;-69
2023/07/16 10:20:03;;;;;;;;;;;;;;;30.38;30.34;100319.69;4980081;28;6800;-73
2023/07/16 10:22:40;;;;;;;;;;;;;;;30.52;30.57;100316.53;4981489;28;7188;-69
2023/07/16 10:25:17;;;;;;;;;;;;;;;30.58;30.11;100330.41;4982735;28;7446;-70
2023/07/16 10:27:44;;;;;;;;;;;;;;;30.98;30.28;100314.84;4986565;28;7213;-70
2023/07/16 10:30:10;;;;;;;;;;;;;;;31.36;29.89;100330.16;5001617;28;6894;-71
2023/07/16 10:32:36;;;;;;;;;;;;;;;31.69;29.61;100321.75;4982158;28;6995;-72
2023/07/16 10:35:03;;;;;;;;;;;;;;;31.92;29.00;100325.25;4980132;28;7213;-69
2023/07/16 10:37:28;;;;;;;;;;;;;;;32.20;28.23;100313.44;4977486;28;6843;-72
2023/07/16 10:39:56;;;;;;;;;;;;;;;32.17;28.15;100326.84;4981648;28;7272;-71
2023/07/16 10:42:23;;;;;;;;;;;;;;;32.52;28.08;100315.63;4975682;28;7001;-71
2023/07/16 10:44:53;;;;;;;;;;;;;;;32.60;27.42;100324.09;4963849;28;7217;-69
2023/07/16 10:47:31;;;;;;;;;;;;;;;32.27;27.41;100332.56;4979478;28;6971;-69
2023/07/16 10:49:56;;;;;;;;;;;;;;;31.75;27.55;100330.34;4975754;28;7273;-69
2023/07/16 10:52:23;;;;;;;;;;;;;;;31.19;27.73;100330.78;4982263;28;6788;-71
2023/07/16 10:54:49;;;;;;;;;;;;;;;30.73;28.75;100333.44;4978882;28;7099;-69
2023/07/16 10:57:16;;;;;;;;;;;;;;;30.48;29.16;100342.22;4974161;28;7508;-70
2023/07/16 10:59:44;;;;;;;;;;;;;;;30.66;29.98;100332.78;4976513;28;9346;-69
2023/07/16 11:02:13;;;;;;;;;;;;;;;31.20;29.39;100318.44;4979180;28;6991;-69
2023/07/16 11:04:40;;;;;;;;;;;;;;;31.84;29.08;100333.53;4980838;28;6807;-69
2023/07/16 11:07:11;;;;;;;;;;;;;;;32.24;27.83;100333.56;4977969;28;6868;-69
2023/07/16 11:09:55;;;;;;;;;;;;;;;32.51;27.33;100335.09;4978553;28;7003;-70
2023/07/16 11:12:22;;;;;;;;;;;;;;;32.90;26.57;100334.19;4983020;28;6988;-70
2023/07/16 11:14:51;;;;;;;;;;;;;;;33.18;26.69;100338.22;4966570;28;8910;-69
2023/07/16 11:17:17;;;;;;;;;;;;;;;33.07;26.37;100336.09;4993394;28;6867;-69
2023/07/16 11:19:48;;;;;;;;;;;;;;;32.91;26.39;100341.22;4978499;28;6926;-71
2023/07/16 11:22:14;;;;;;;;;;;;;;;32.58;26.34;100343.66;4983252;28;7345;-70
2023/07/16 11:24:42;;;;;;;;;;;;;;;32.35;26.19;100340.19;4981515;28;7007;-71
2023/07/16 11:27:23;;;;;;;;;;;;;;;32.04;26.10;100349.47;4984059;28;6819;-71
2023/07/16 11:29:54;;;;;;;;;;;;;;;31.65;26.47;100351.91;4987960;28;7157;-70
2023/07/16 11:32:29;;;;;;;;;;;;;;;31.24;26.39;100333.28;4986590;28;6855;-71
2023/07/16 11:34:56;;;;;;;;;;;;;;;30.84;26.77;100356.81;5002720;28;6816;-70
2023/07/16 11:37:22;;;;;;;;;;;;;;;30.60;26.90;100348.88;4984311;28;6800;-72
2023/07/16 11:39:49;;;;;;;;;;;;;;;30.64;27.96;100355.75;4982342;28;7083;-71
2023/07/16 11:42:17;;;;;;;;;;;;;;;30.84;27.77;100351.53;5001863;28;7244;-69
2023/07/16 11:44:43;;;;;;;;;;;;;;;30.96;27.96;100361.66;4984660;28;7185;-69
2023/07/16 11:47:08;;;;;;;;;;;;;;;30.88;27.73;100361.94;4998322;28;6800;-71
2023/07/16 11:49:34;;;;;;;;;;;;;;;30.96;27.76;100360.78;5000182;28;7190;-71
2023/07/16 11:51:59;;;;;;;;;;;;;;;30.99;28.16;100363.31;4985736;28;6886;-69
2023/07/16 11:54:25;;;;;;;;;;;;;;;30.97;27.66;100349.28;5001070;28;6938;-69
2023/07/16 11:56:50;;;;;;;;;;;;;;;31.00;27.93;100362.38;4977100;28;6795;-73
2023/07/16 11:59:20;;;;;;;;;;;;;;;31.02;27.65;100365.84;4996252;28;6980;-72
2023/07/16 12:01:47;;;;;;;;;;;;;;;31.06;28.27;100366.59;5006266;28;7471;-72
2023/07/16 12:04:14;;;;;;;;;;;;;;;31.39;28.86;100360.94;5030579;28;7089;-72
2023/07/16 12:06:39;;;;;;;;;;;;;;;31.76;27.70;100361.22;5010150;28;6808;-71
2023/07/16 12:09:05;;;;;;;;;;;;;;;31.98;27.82;100359.44;4988752;28;8104;-72
2023/07/16 12:11:30;;;;;;;;;;;;;;;32.24;27.23;100356.59;5003159;28;6788;-71
2023/07/16 12:13:55;;;;;;;;;;;;;;;32.38;26.82;100369.25;5013727;28;7241;-71
2023/07/16 12:16:21;;;;;;;;;;;;;;;32.64;26.92;100357.47;4996434;28;7295;-72
2023/07/16 12:18:46;;;;;;;;;;;;;;;32.88;26.94;100365.22;4994401;28;6968;-71
2023/07/16 12:21:12;;;;;;;;;;;;;;;33.03;26.45;100363.72;5014451;28;7248;-71
2023/07/16 12:23:37;;;;;;;;;;;;;;;33.17;26.58;100362.19;5012073;28;6795;-71
2023/07/16 12:26:03;;;;;;;;;;;;;;;33.30;26.06;100350.03;4996136;28;6967;-71
2023/07/16 12:28:28;;;;;;;;;;;;;;;33.60;26.24;100362.78;5012743;28;6864;-72
2023/07/16 12:30:57;;;;;;;;;;;;;;;33.97;25.92;100352.09;5012060;28;7018;-72
2023/07/16 12:33:22;;;;;;;;;;;;;;;34.05;25.62;100375.66;4981459;28;7159;-72
2023/07/16 12:35:48;;;;;;;;;;;;;;;33.86;25.40;100375.72;4997578;28;6791;-72
2023/07/16 12:38:13;;;;;;;;;;;;;;;33.42;25.51;100379.59;4997887;28;7140;-72
2023/07/16 12:40:40;;;;;;;;;;;;;;;33.11;25.75;100379.28;5012504;28;6803;-71
2023/07/16 12:43:07;;;;;;;;;;;;;;;32.82;26.00;100374.34;4997584;28;7409;-71